sensor_id;sensor_type;location;lat;lon;timestamp;P1;durP1;ratioP1;P2;durP2;ratioP2
55140;SDS011;41035;44.280;19.870;2022-10-10T00:01:36;30.60;;;24.92;;
55140;SDS011;41035;44.280;19.870;2022-10-10T00:04:02;43.85;;;29.65;;
55140;SDS011;41035;44.280;19.870;2022-10-10T00:06:29;33.75;;;24.17;;
55140;SDS011;41035;44.280;19.870;2022-10-10T00:08:55;30.83;;;22.90;;
55140;SDS011;41035;44.280;19.870;2022-10-10T00:11:24;29.48;;;24.65;;
55140;SDS011;41035;44.280;19.870;2022-10-10T00:13:50;29.38;;;22.83;;
55140;SDS011;41035;44.280;19.870;2022-10-10T00:16:17;31.00;;;23.58;;
55140;SDS011;41035;44.280;19.870;2022-10-10T00:18:52;26.55;;;22.48;;
55140;SDS011;41035;44.280;19.870;2022-10-10T00:21:18;33.30;;;22.10;;
55140;SDS011;41035;44.280;19.870;2022-10-10T00:23:47;33.85;;;22.38;;
55140;SDS011;41035;44.280;19.870;2022-10-10T00:26:17;29.48;;;22.13;;
55140;SDS011;41035;44.280;19.870;2022-10-10T00:28:43;28.23;;;19.67;;
55140;SDS011;41035;44.280;19.870;2022-10-10T00:31:09;25.40;;;21.13;;
55140;SDS011;41035;44.280;19.870;2022-10-10T00:33:35;28.95;;;21.30;;
55140;SDS011;41035;44.280;19.870;2022-10-10T00:36:02;30.42;;;23.63;;
55140;SDS011;41035;44.280;19.870;2022-10-10T00:38:31;36.00;;;23.70;;
55140;SDS011;41035;44.280;19.870;2022-10-10T00:40:57;29.30;;;21.48;;
55140;SDS011;41035;44.280;19.870;2022-10-10T00:43:24;27.20;;;21.50;;
55140;SDS011;41035;44.280;19.870;2022-10-10T00:45:59;26.67;;;21.80;;
55140;SDS011;41035;44.280;19.870;2022-10-10T00:48:27;31.58;;;22.17;;
55140;SDS011;41035;44.280;19.870;2022-10-10T00:51:00;27.88;;;23.48;;
55140;SDS011;41035;44.280;19.870;2022-10-10T00:53:29;29.85;;;24.00;;
55140;SDS011;41035;44.280;19.870;2022-10-10T00:58:28;27.65;;;22.23;;
55140;SDS011;41035;44.280;19.870;2022-10-10T01:01:03;27.25;;;22.15;;
55140;SDS011;41035;44.280;19.870;2022-10-10T01:03:36;25.27;;;20.73;;
55140;SDS011;41035;44.280;19.870;2022-10-10T01:06:02;29.38;;;22.90;;
55140;SDS011;41035;44.280;19.870;2022-10-10T01:08:29;26.58;;;22.23;;
55140;SDS011;41035;44.280;19.870;2022-10-10T01:21:50;28.38;;;23.30;;
55140;SDS011;41035;44.280;19.870;2022-10-10T01:30:13;27.80;;;22.85;;
55140;SDS011;41035;44.280;19.870;2022-10-10T01:32:44;26.75;;;22.33;;
55140;SDS011;41035;44.280;19.870;2022-10-10T01:42:54;29.85;;;22.92;;
55140;SDS011;41035;44.280;19.870;2022-10-10T01:45:21;31.25;;;23.17;;
55140;SDS011;41035;44.280;19.870;2022-10-10T01:47:48;32.03;;;22.63;;
55140;SDS011;41035;44.280;19.870;2022-10-10T01:50:15;36.38;;;22.83;;
55140;SDS011;41035;44.280;19.870;2022-10-10T01:57:56;31.98;;;22.75;;
55140;SDS011;41035;44.280;19.870;2022-10-10T02:00:24;29.58;;;23.45;;
55140;SDS011;41035;44.280;19.870;2022-10-10T02:07:51;28.33;;;23.52;;
55140;SDS011;41035;44.280;19.870;2022-10-10T02:10:22;34.80;;;23.75;;
55140;SDS011;41035;44.280;19.870;2022-10-10T02:12:49;28.67;;;23.02;;
55140;SDS011;41035;44.280;19.870;2022-10-10T02:15:17;28.50;;;23.02;;
55140;SDS011;41035;44.280;19.870;2022-10-10T02:17:44;27.63;;;22.98;;
55140;SDS011;41035;44.280;19.870;2022-10-10T02:20:12;29.20;;;22.80;;
55140;SDS011;41035;44.280;19.870;2022-10-10T02:22:38;28.45;;;23.08;;
55140;SDS011;41035;44.280;19.870;2022-10-10T02:25:06;31.00;;;23.08;;
55140;SDS011;41035;44.280;19.870;2022-10-10T02:27:57;31.45;;;22.75;;
55140;SDS011;41035;44.280;19.870;2022-10-10T02:30:18;23.83;;;20.20;;
55140;SDS011;41035;44.280;19.870;2022-10-10T02:32:49;25.77;;;20.55;;
55140;SDS011;41035;44.280;19.870;2022-10-10T02:35:22;24.75;;;19.60;;
55140;SDS011;41035;44.280;19.870;2022-10-10T02:37:49;24.92;;;20.42;;
55140;SDS011;41035;44.280;19.870;2022-10-10T02:40:18;25.10;;;20.67;;
55140;SDS011;41035;44.280;19.870;2022-10-10T02:42:45;24.17;;;21.08;;
55140;SDS011;41035;44.280;19.870;2022-10-10T02:45:12;29.52;;;20.58;;
55140;SDS011;41035;44.280;19.870;2022-10-10T02:47:38;28.02;;;20.73;;
55140;SDS011;41035;44.280;19.870;2022-10-10T02:50:04;23.48;;;20.98;;
55140;SDS011;41035;44.280;19.870;2022-10-10T02:52:30;24.88;;;21.95;;
55140;SDS011;41035;44.280;19.870;2022-10-10T02:54:57;30.98;;;23.17;;
55140;SDS011;41035;44.280;19.870;2022-10-10T02:57:23;24.25;;;21.13;;
55140;SDS011;41035;44.280;19.870;2022-10-10T02:59:49;25.27;;;21.75;;
55140;SDS011;41035;44.280;19.870;2022-10-10T03:02:15;29.88;;;23.48;;
55140;SDS011;41035;44.280;19.870;2022-10-10T03:04:41;33.65;;;23.92;;
55140;SDS011;41035;44.280;19.870;2022-10-10T03:07:08;27.63;;;22.95;;
55140;SDS011;41035;44.280;19.870;2022-10-10T03:09:35;27.73;;;23.98;;
55140;SDS011;41035;44.280;19.870;2022-10-10T03:12:01;27.88;;;24.20;;
55140;SDS011;41035;44.280;19.870;2022-10-10T03:14:27;27.42;;;23.52;;
55140;SDS011;41035;44.280;19.870;2022-10-10T03:16:53;27.30;;;22.50;;
55140;SDS011;41035;44.280;19.870;2022-10-10T03:19:19;30.52;;;22.67;;
55140;SDS011;41035;44.280;19.870;2022-10-10T03:21:45;31.27;;;23.50;;
55140;SDS011;41035;44.280;19.870;2022-10-10T03:24:11;27.60;;;22.45;;
55140;SDS011;41035;44.280;19.870;2022-10-10T03:26:37;27.45;;;21.90;;
55140;SDS011;41035;44.280;19.870;2022-10-10T03:29:04;27.33;;;22.15;;
55140;SDS011;41035;44.280;19.870;2022-10-10T03:31:30;30.02;;;21.63;;
55140;SDS011;41035;44.280;19.870;2022-10-10T03:33:56;27.30;;;22.52;;
55140;SDS011;41035;44.280;19.870;2022-10-10T03:36:32;29.17;;;22.98;;
55140;SDS011;41035;44.280;19.870;2022-10-10T03:38:58;28.05;;;23.05;;
55140;SDS011;41035;44.280;19.870;2022-10-10T03:41:42;29.30;;;23.05;;
55140;SDS011;41035;44.280;19.870;2022-10-10T03:44:08;31.13;;;22.05;;
55140;SDS011;41035;44.280;19.870;2022-10-10T03:46:45;29.60;;;24.73;;
55140;SDS011;41035;44.280;19.870;2022-10-10T03:49:11;30.45;;;22.27;;
55140;SDS011;41035;44.280;19.870;2022-10-10T03:51:46;29.58;;;23.55;;
55140;SDS011;41035;44.280;19.870;2022-10-10T03:54:12;31.25;;;22.38;;
55140;SDS011;41035;44.280;19.870;2022-10-10T03:56:41;30.67;;;23.00;;
55140;SDS011;41035;44.280;19.870;2022-10-10T03:59:08;33.15;;;24.17;;
55140;SDS011;41035;44.280;19.870;2022-10-10T04:01:34;32.63;;;25.63;;
55140;SDS011;41035;44.280;19.870;2022-10-10T04:04:00;31.10;;;25.13;;
55140;SDS011;41035;44.280;19.870;2022-10-10T04:06:32;37.33;;;26.25;;
55140;SDS011;41035;44.280;19.870;2022-10-10T04:09:01;36.58;;;27.63;;
55140;SDS011;41035;44.280;19.870;2022-10-10T04:11:28;36.38;;;26.83;;
55140;SDS011;41035;44.280;19.870;2022-10-10T04:13:54;42.08;;;28.67;;
55140;SDS011;41035;44.280;19.870;2022-10-10T04:16:20;42.22;;;30.23;;
55140;SDS011;41035;44.280;19.870;2022-10-10T04:18:55;39.15;;;29.15;;
55140;SDS011;41035;44.280;19.870;2022-10-10T04:21:31;42.20;;;32.08;;
55140;SDS011;41035;44.280;19.870;2022-10-10T04:24:06;42.70;;;32.72;;
55140;SDS011;41035;44.280;19.870;2022-10-10T04:26:32;47.63;;;32.90;;
55140;SDS011;41035;44.280;19.870;2022-10-10T04:29:02;89.72;;;56.15;;
55140;SDS011;41035;44.280;19.870;2022-10-10T04:31:33;70.00;;;46.05;;
55140;SDS011;41035;44.280;19.870;2022-10-10T04:33:59;69.30;;;42.95;;
55140;SDS011;41035;44.280;19.870;2022-10-10T04:36:25;54.33;;;39.42;;
55140;SDS011;41035;44.280;19.870;2022-10-10T04:38:51;38.70;;;31.63;;
55140;SDS011;41035;44.280;19.870;2022-10-10T04:41:17;39.15;;;30.02;;
55140;SDS011;41035;44.280;19.870;2022-10-10T04:43:44;36.90;;;29.17;;
55140;SDS011;41035;44.280;19.870;2022-10-10T04:46:10;37.25;;;29.27;;
55140;SDS011;41035;44.280;19.870;2022-10-10T04:48:36;38.45;;;28.05;;
55140;SDS011;41035;44.280;19.870;2022-10-10T04:51:02;39.03;;;27.90;;
55140;SDS011;41035;44.280;19.870;2022-10-10T04:53:28;40.42;;;28.45;;
55140;SDS011;41035;44.280;19.870;2022-10-10T04:55:54;37.60;;;28.52;;
55140;SDS011;41035;44.280;19.870;2022-10-10T04:58:21;41.88;;;28.88;;
55140;SDS011;41035;44.280;19.870;2022-10-10T05:00:53;36.60;;;29.25;;
55140;SDS011;41035;44.280;19.870;2022-10-10T05:03:20;34.30;;;26.70;;
55140;SDS011;41035;44.280;19.870;2022-10-10T05:05:46;38.47;;;27.55;;
55140;SDS011;41035;44.280;19.870;2022-10-10T05:08:12;38.20;;;28.20;;
55140;SDS011;41035;44.280;19.870;2022-10-10T05:10:39;39.00;;;29.40;;
55140;SDS011;41035;44.280;19.870;2022-10-10T05:13:05;43.08;;;29.08;;
55140;SDS011;41035;44.280;19.870;2022-10-10T05:15:35;45.17;;;28.90;;
55140;SDS011;41035;44.280;19.870;2022-10-10T05:18:01;44.47;;;29.20;;
55140;SDS011;41035;44.280;19.870;2022-10-10T05:20:28;40.40;;;30.38;;
55140;SDS011;41035;44.280;19.870;2022-10-10T05:22:54;38.83;;;29.17;;
55140;SDS011;41035;44.280;19.870;2022-10-10T05:25:20;45.35;;;30.45;;
55140;SDS011;41035;44.280;19.870;2022-10-10T05:27:46;39.55;;;28.17;;
55140;SDS011;41035;44.280;19.870;2022-10-10T05:30:12;44.17;;;26.77;;
55140;SDS011;41035;44.280;19.870;2022-10-10T05:32:39;34.40;;;25.50;;
55140;SDS011;41035;44.280;19.870;2022-10-10T05:35:05;64.85;;;31.15;;
55140;SDS011;41035;44.280;19.870;2022-10-10T05:37:31;109.07;;;45.40;;
55140;SDS011;41035;44.280;19.870;2022-10-10T05:39:57;100.43;;;42.85;;
55140;SDS011;41035;44.280;19.870;2022-10-10T05:42:24;90.03;;;40.90;;
55140;SDS011;41035;44.280;19.870;2022-10-10T05:44:50;117.30;;;55.95;;
55140;SDS011;41035;44.280;19.870;2022-10-10T05:47:16;114.63;;;60.08;;
55140;SDS011;41035;44.280;19.870;2022-10-10T05:49:42;100.93;;;59.13;;
55140;SDS011;41035;44.280;19.870;2022-10-10T05:52:08;104.32;;;58.92;;
55140;SDS011;41035;44.280;19.870;2022-10-10T05:54:35;113.90;;;50.75;;
55140;SDS011;41035;44.280;19.870;2022-10-10T05:57:01;223.10;;;74.82;;
55140;SDS011;41035;44.280;19.870;2022-10-10T05:59:27;213.55;;;74.07;;
55140;SDS011;41035;44.280;19.870;2022-10-10T06:01:54;217.80;;;72.88;;
55140;SDS011;41035;44.280;19.870;2022-10-10T06:04:21;157.73;;;59.88;;
55140;SDS011;41035;44.280;19.870;2022-10-10T06:06:48;144.98;;;65.32;;
55140;SDS011;41035;44.280;19.870;2022-10-10T06:09:17;129.68;;;62.38;;
55140;SDS011;41035;44.280;19.870;2022-10-10T06:11:43;98.13;;;49.85;;
55140;SDS011;41035;44.280;19.870;2022-10-10T06:14:09;88.75;;;43.58;;
55140;SDS011;41035;44.280;19.870;2022-10-10T06:16:35;75.72;;;40.40;;
55140;SDS011;41035;44.280;19.870;2022-10-10T06:19:03;71.57;;;40.47;;
55140;SDS011;41035;44.280;19.870;2022-10-10T06:21:29;52.78;;;32.58;;
55140;SDS011;41035;44.280;19.870;2022-10-10T06:23:55;44.78;;;31.08;;
55140;SDS011;41035;44.280;19.870;2022-10-10T06:26:22;58.63;;;31.80;;
55140;SDS011;41035;44.280;19.870;2022-10-10T06:28:48;62.70;;;37.50;;
55140;SDS011;41035;44.280;19.870;2022-10-10T06:31:14;66.65;;;41.72;;
55140;SDS011;41035;44.280;19.870;2022-10-10T06:33:50;70.78;;;43.42;;
55140;SDS011;41035;44.280;19.870;2022-10-10T06:36:17;57.58;;;37.55;;
55140;SDS011;41035;44.280;19.870;2022-10-10T06:38:46;67.20;;;38.00;;
55140;SDS011;41035;44.280;19.870;2022-10-10T06:41:12;55.17;;;37.50;;
55140;SDS011;41035;44.280;19.870;2022-10-10T06:43:38;60.47;;;35.13;;
55140;SDS011;41035;44.280;19.870;2022-10-10T06:46:05;60.60;;;35.70;;
55140;SDS011;41035;44.280;19.870;2022-10-10T06:48:38;57.38;;;37.53;;
55140;SDS011;41035;44.280;19.870;2022-10-10T06:51:09;58.40;;;35.83;;
55140;SDS011;41035;44.280;19.870;2022-10-10T06:53:36;56.72;;;35.20;;
55140;SDS011;41035;44.280;19.870;2022-10-10T06:56:11;48.63;;;35.17;;
55140;SDS011;41035;44.280;19.870;2022-10-10T06:58:42;55.08;;;36.05;;
55140;SDS011;41035;44.280;19.870;2022-10-10T07:01:08;82.57;;;46.90;;
55140;SDS011;41035;44.280;19.870;2022-10-10T07:03:34;338.50;;;161.13;;
55140;SDS011;41035;44.280;19.870;2022-10-10T07:06:01;184.38;;;103.15;;
55140;SDS011;41035;44.280;19.870;2022-10-10T07:08:33;233.82;;;124.15;;
55140;SDS011;41035;44.280;19.870;2022-10-10T07:10:59;115.80;;;71.55;;
55140;SDS011;41035;44.280;19.870;2022-10-10T07:13:34;102.72;;;67.57;;
55140;SDS011;41035;44.280;19.870;2022-10-10T07:16:01;112.82;;;67.63;;
55140;SDS011;41035;44.280;19.870;2022-10-10T07:18:27;113.30;;;70.97;;
55140;SDS011;41035;44.280;19.870;2022-10-10T07:20:57;130.15;;;79.03;;
55140;SDS011;41035;44.280;19.870;2022-10-10T07:23:26;96.53;;;68.47;;
55140;SDS011;41035;44.280;19.870;2022-10-10T07:25:59;112.75;;;72.47;;
55140;SDS011;41035;44.280;19.870;2022-10-10T07:28:26;103.47;;;71.40;;
55140;SDS011;41035;44.280;19.870;2022-10-10T07:31:05;95.40;;;63.53;;
55140;SDS011;41035;44.280;19.870;2022-10-10T07:33:39;90.90;;;63.53;;
55140;SDS011;41035;44.280;19.870;2022-10-10T07:36:05;84.55;;;56.10;;
55140;SDS011;41035;44.280;19.870;2022-10-10T07:38:32;81.13;;;51.20;;
55140;SDS011;41035;44.280;19.870;2022-10-10T07:40:58;65.00;;;42.20;;
55140;SDS011;41035;44.280;19.870;2022-10-10T07:43:24;63.38;;;41.17;;
55140;SDS011;41035;44.280;19.870;2022-10-10T07:45:53;60.10;;;39.03;;
55140;SDS011;41035;44.280;19.870;2022-10-10T07:48:19;56.45;;;39.05;;
55140;SDS011;41035;44.280;19.870;2022-10-10T07:50:45;65.40;;;40.70;;
55140;SDS011;41035;44.280;19.870;2022-10-10T07:53:20;73.55;;;41.63;;
55140;SDS011;41035;44.280;19.870;2022-10-10T07:55:46;74.82;;;42.83;;
55140;SDS011;41035;44.280;19.870;2022-10-10T07:58:19;71.07;;;42.28;;
55140;SDS011;41035;44.280;19.870;2022-10-10T08:00:45;78.85;;;42.20;;
55140;SDS011;41035;44.280;19.870;2022-10-10T08:03:14;70.00;;;39.03;;
55140;SDS011;41035;44.280;19.870;2022-10-10T08:05:47;70.93;;;42.38;;
55140;SDS011;41035;44.280;19.870;2022-10-10T08:08:13;64.13;;;37.15;;
55140;SDS011;41035;44.280;19.870;2022-10-10T08:10:41;53.15;;;38.72;;
55140;SDS011;41035;44.280;19.870;2022-10-10T08:13:08;66.68;;;40.47;;
55140;SDS011;41035;44.280;19.870;2022-10-10T08:15:41;61.78;;;39.80;;
55140;SDS011;41035;44.280;19.870;2022-10-10T08:18:08;70.97;;;41.22;;
55140;SDS011;41035;44.280;19.870;2022-10-10T08:20:34;59.67;;;39.65;;
55140;SDS011;41035;44.280;19.870;2022-10-10T08:23:15;56.17;;;40.03;;
55140;SDS011;41035;44.280;19.870;2022-10-10T08:25:41;55.63;;;39.97;;
55140;SDS011;41035;44.280;19.870;2022-10-10T08:28:07;62.00;;;40.22;;
55140;SDS011;41035;44.280;19.870;2022-10-10T08:30:38;61.00;;;40.35;;
55140;SDS011;41035;44.280;19.870;2022-10-10T08:33:05;67.18;;;46.63;;
55140;SDS011;41035;44.280;19.870;2022-10-10T08:35:46;69.00;;;47.88;;
55140;SDS011;41035;44.280;19.870;2022-10-10T08:38:22;73.93;;;48.97;;
55140;SDS011;41035;44.280;19.870;2022-10-10T08:40:50;68.63;;;43.25;;
55140;SDS011;41035;44.280;19.870;2022-10-10T08:43:20;57.03;;;39.58;;
55140;SDS011;41035;44.280;19.870;2022-10-10T08:45:49;52.13;;;37.25;;
55140;SDS011;41035;44.280;19.870;2022-10-10T08:48:16;53.25;;;36.28;;
55140;SDS011;41035;44.280;19.870;2022-10-10T08:50:58;53.47;;;35.35;;
55140;SDS011;41035;44.280;19.870;2022-10-10T08:53:42;48.38;;;33.00;;
55140;SDS011;41035;44.280;19.870;2022-10-10T08:56:14;48.63;;;35.38;;
55140;SDS011;41035;44.280;19.870;2022-10-10T08:58:42;51.22;;;35.17;;
55140;SDS011;41035;44.280;19.870;2022-10-10T09:03:45;50.47;;;35.78;;
55140;SDS011;41035;44.280;19.870;2022-10-10T09:06:21;46.30;;;34.75;;
55140;SDS011;41035;44.280;19.870;2022-10-10T09:09:15;49.95;;;36.05;;
55140;SDS011;41035;44.280;19.870;2022-10-10T09:14:06;49.58;;;36.30;;
55140;SDS011;41035;44.280;19.870;2022-10-10T09:16:51;50.78;;;36.47;;
55140;SDS011;41035;44.280;19.870;2022-10-10T09:19:48;55.60;;;34.20;;
55140;SDS011;41035;44.280;19.870;2022-10-10T09:22:33;49.45;;;36.05;;
55140;SDS011;41035;44.280;19.870;2022-10-10T09:28:04;58.78;;;40.15;;
55140;SDS011;41035;44.280;19.870;2022-10-10T09:30:35;50.97;;;38.33;;
55140;SDS011;41035;44.280;19.870;2022-10-10T09:33:06;45.78;;;36.13;;
55140;SDS011;41035;44.280;19.870;2022-10-10T09:35:34;60.83;;;35.42;;
55140;SDS011;41035;44.280;19.870;2022-10-10T09:40:37;43.25;;;34.33;;
55140;SDS011;41035;44.280;19.870;2022-10-10T09:43:28;53.45;;;35.03;;
55140;SDS011;41035;44.280;19.870;2022-10-10T09:45:51;55.88;;;38.08;;
55140;SDS011;41035;44.280;19.870;2022-10-10T09:48:18;49.97;;;35.47;;
55140;SDS011;41035;44.280;19.870;2022-10-10T09:50:57;48.70;;;34.47;;
55140;SDS011;41035;44.280;19.870;2022-10-10T09:53:23;46.45;;;33.65;;
55140;SDS011;41035;44.280;19.870;2022-10-10T09:55:53;56.97;;;36.63;;
55140;SDS011;41035;44.280;19.870;2022-10-10T10:03:30;58.17;;;37.33;;
55140;SDS011;41035;44.280;19.870;2022-10-10T10:05:58;72.13;;;42.55;;
55140;SDS011;41035;44.280;19.870;2022-10-10T10:08:28;57.95;;;37.72;;
55140;SDS011;41035;44.280;19.870;2022-10-10T10:11:04;49.88;;;34.05;;
55140;SDS011;41035;44.280;19.870;2022-10-10T10:13:34;47.63;;;32.15;;
55140;SDS011;41035;44.280;19.870;2022-10-10T10:16:04;51.65;;;35.33;;
55140;SDS011;41035;44.280;19.870;2022-10-10T10:18:36;45.53;;;32.05;;
55140;SDS011;41035;44.280;19.870;2022-10-10T10:23:42;77.32;;;50.33;;
55140;SDS011;41035;44.280;19.870;2022-10-10T10:28:55;61.67;;;40.08;;
55140;SDS011;41035;44.280;19.870;2022-10-10T10:31:32;46.75;;;32.33;;
55140;SDS011;41035;44.280;19.870;2022-10-10T11:15:31;33.85;;;22.02;;
55140;SDS011;41035;44.280;19.870;2022-10-10T11:18:09;30.27;;;22.08;;
55140;SDS011;41035;44.280;19.870;2022-10-10T11:20:46;29.83;;;20.53;;
55140;SDS011;41035;44.280;19.870;2022-10-10T11:23:19;24.90;;;19.05;;
55140;SDS011;41035;44.280;19.870;2022-10-10T11:26:02;30.63;;;18.95;;
55140;SDS011;41035;44.280;19.870;2022-10-10T11:28:35;25.48;;;19.83;;
55140;SDS011;41035;44.280;19.870;2022-10-10T11:31:09;31.63;;;21.67;;
55140;SDS011;41035;44.280;19.870;2022-10-10T11:33:41;34.15;;;21.77;;
55140;SDS011;41035;44.280;19.870;2022-10-10T11:36:16;31.60;;;19.20;;
55140;SDS011;41035;44.280;19.870;2022-10-10T11:38:45;29.08;;;19.80;;
55140;SDS011;41035;44.280;19.870;2022-10-10T11:43:41;26.85;;;18.05;;
55140;SDS011;41035;44.280;19.870;2022-10-10T11:46:23;25.48;;;17.80;;
55140;SDS011;41035;44.280;19.870;2022-10-10T11:49:06;24.73;;;18.00;;
55140;SDS011;41035;44.280;19.870;2022-10-10T11:51:42;25.80;;;18.75;;
55140;SDS011;41035;44.280;19.870;2022-10-10T11:55:12;22.23;;;17.23;;
55140;SDS011;41035;44.280;19.870;2022-10-10T11:57:48;29.00;;;18.10;;
55140;SDS011;41035;44.280;19.870;2022-10-10T11:59:54;25.23;;;18.92;;
55140;SDS011;41035;44.280;19.870;2022-10-10T12:02:30;31.55;;;20.95;;
55140;SDS011;41035;44.280;19.870;2022-10-10T12:05:24;27.50;;;19.85;;
55140;SDS011;41035;44.280;19.870;2022-10-10T12:10:26;32.53;;;18.73;;
55140;SDS011;41035;44.280;19.870;2022-10-10T12:12:53;26.52;;;20.58;;
55140;SDS011;41035;44.280;19.870;2022-10-10T12:15:27;27.40;;;19.30;;
55140;SDS011;41035;44.280;19.870;2022-10-10T12:18:03;21.83;;;18.08;;
55140;SDS011;41035;44.280;19.870;2022-10-10T12:20:36;28.55;;;19.60;;
55140;SDS011;41035;44.280;19.870;2022-10-10T12:46:45;27.33;;;18.35;;
55140;SDS011;41035;44.280;19.870;2022-10-10T12:49:24;20.95;;;15.13;;
55140;SDS011;41035;44.280;19.870;2022-10-10T12:52:06;22.83;;;16.27;;
55140;SDS011;41035;44.280;19.870;2022-10-10T12:54:36;28.95;;;18.10;;
55140;SDS011;41035;44.280;19.870;2022-10-10T12:57:13;20.60;;;14.95;;
55140;SDS011;41035;44.280;19.870;2022-10-10T12:59:42;24.85;;;15.80;;
55140;SDS011;41035;44.280;19.870;2022-10-10T13:02:26;23.63;;;16.35;;
55140;SDS011;41035;44.280;19.870;2022-10-10T13:04:54;21.25;;;14.48;;
55140;SDS011;41035;44.280;19.870;2022-10-10T13:07:20;22.27;;;14.57;;
55140;SDS011;41035;44.280;19.870;2022-10-10T13:09:48;22.17;;;16.02;;
55140;SDS011;41035;44.280;19.870;2022-10-10T13:12:22;19.58;;;15.68;;
55140;SDS011;41035;44.280;19.870;2022-10-10T13:14:49;44.05;;;26.75;;
55140;SDS011;41035;44.280;19.870;2022-10-10T13:17:29;40.00;;;23.45;;
55140;SDS011;41035;44.280;19.870;2022-10-10T13:19:57;21.17;;;17.15;;
55140;SDS011;41035;44.280;19.870;2022-10-10T13:22:23;19.52;;;16.08;;
55140;SDS011;41035;44.280;19.870;2022-10-10T13:24:50;23.80;;;15.75;;
55140;SDS011;41035;44.280;19.870;2022-10-10T13:27:27;26.63;;;18.52;;
55140;SDS011;41035;44.280;19.870;2022-10-10T13:29:59;23.20;;;16.25;;
55140;SDS011;41035;44.280;19.870;2022-10-10T13:32:35;28.45;;;17.65;;
55140;SDS011;41035;44.280;19.870;2022-10-10T13:35:05;27.55;;;18.13;;
55140;SDS011;41035;44.280;19.870;2022-10-10T13:37:32;36.33;;;22.23;;
55140;SDS011;41035;44.280;19.870;2022-10-10T13:40:14;40.28;;;23.55;;
55140;SDS011;41035;44.280;19.870;2022-10-10T13:42:41;98.20;;;47.00;;
55140;SDS011;41035;44.280;19.870;2022-10-10T13:50:20;27.48;;;17.70;;
55140;SDS011;41035;44.280;19.870;2022-10-10T13:55:33;21.83;;;16.20;;
55140;SDS011;41035;44.280;19.870;2022-10-10T13:58:07;19.25;;;14.15;;
55140;SDS011;41035;44.280;19.870;2022-10-10T14:00:34;23.85;;;13.95;;
55140;SDS011;41035;44.280;19.870;2022-10-10T14:03:11;22.58;;;16.30;;
55140;SDS011;41035;44.280;19.870;2022-10-10T14:05:38;27.77;;;17.05;;
55140;SDS011;41035;44.280;19.870;2022-10-10T14:08:17;29.23;;;16.73;;
55140;SDS011;41035;44.280;19.870;2022-10-10T14:11:00;26.25;;;19.38;;
55140;SDS011;41035;44.280;19.870;2022-10-10T14:13:33;22.90;;;16.13;;
55140;SDS011;41035;44.280;19.870;2022-10-10T14:18:50;32.17;;;22.50;;
55140;SDS011;41035;44.280;19.870;2022-10-10T14:21:16;27.63;;;17.95;;
55140;SDS011;41035;44.280;19.870;2022-10-10T14:23:47;26.65;;;17.70;;
55140;SDS011;41035;44.280;19.870;2022-10-10T14:26:14;124.95;;;23.02;;
55140;SDS011;41035;44.280;19.870;2022-10-10T14:28:41;55.43;;;20.80;;
55140;SDS011;41035;44.280;19.870;2022-10-10T14:31:07;40.58;;;23.02;;
55140;SDS011;41035;44.280;19.870;2022-10-10T14:33:34;33.47;;;23.25;;
55140;SDS011;41035;44.280;19.870;2022-10-10T14:36:00;33.67;;;23.15;;
55140;SDS011;41035;44.280;19.870;2022-10-10T14:38:26;36.33;;;18.48;;
55140;SDS011;41035;44.280;19.870;2022-10-10T14:41:17;23.23;;;17.00;;
55140;SDS011;41035;44.280;19.870;2022-10-10T14:43:53;31.75;;;18.67;;
55140;SDS011;41035;44.280;19.870;2022-10-10T14:46:22;20.75;;;17.13;;
55140;SDS011;41035;44.280;19.870;2022-10-10T14:48:48;27.40;;;16.90;;
55140;SDS011;41035;44.280;19.870;2022-10-10T14:51:14;30.45;;;18.88;;
55140;SDS011;41035;44.280;19.870;2022-10-10T14:53:41;30.33;;;19.33;;
55140;SDS011;41035;44.280;19.870;2022-10-10T14:56:08;29.38;;;18.30;;
55140;SDS011;41035;44.280;19.870;2022-10-10T15:01:10;50.70;;;30.23;;
55140;SDS011;41035;44.280;19.870;2022-10-10T15:03:36;37.70;;;23.10;;
55140;SDS011;41035;44.280;19.870;2022-10-10T15:06:03;34.05;;;22.00;;
55140;SDS011;41035;44.280;19.870;2022-10-10T15:08:29;37.25;;;23.20;;
55140;SDS011;41035;44.280;19.870;2022-10-10T15:10:55;35.53;;;23.65;;
55140;SDS011;41035;44.280;19.870;2022-10-10T15:13:22;31.38;;;21.65;;
55140;SDS011;41035;44.280;19.870;2022-10-10T15:15:48;45.35;;;29.90;;
55140;SDS011;41035;44.280;19.870;2022-10-10T15:18:15;42.80;;;29.55;;
55140;SDS011;41035;44.280;19.870;2022-10-10T15:20:50;48.63;;;34.97;;
55140;SDS011;41035;44.280;19.870;2022-10-10T15:23:19;38.63;;;28.20;;
55140;SDS011;41035;44.280;19.870;2022-10-10T15:25:45;53.78;;;32.30;;
55140;SDS011;41035;44.280;19.870;2022-10-10T15:28:11;40.42;;;29.60;;
55140;SDS011;41035;44.280;19.870;2022-10-10T15:30:44;54.63;;;35.80;;
55140;SDS011;41035;44.280;19.870;2022-10-10T15:33:10;47.53;;;34.22;;
55140;SDS011;41035;44.280;19.870;2022-10-10T15:35:36;53.20;;;37.58;;
55140;SDS011;41035;44.280;19.870;2022-10-10T15:38:08;43.97;;;32.28;;
55140;SDS011;41035;44.280;19.870;2022-10-10T15:40:34;41.55;;;30.30;;
55140;SDS011;41035;44.280;19.870;2022-10-10T15:43:13;40.72;;;30.52;;
55140;SDS011;41035;44.280;19.870;2022-10-10T15:45:41;47.13;;;33.22;;
55140;SDS011;41035;44.280;19.870;2022-10-10T15:48:16;37.83;;;28.73;;
55140;SDS011;41035;44.280;19.870;2022-10-10T15:50:48;44.70;;;31.67;;
55140;SDS011;41035;44.280;19.870;2022-10-10T15:53:23;50.97;;;35.63;;
55140;SDS011;41035;44.280;19.870;2022-10-10T15:55:49;80.60;;;50.97;;
55140;SDS011;41035;44.280;19.870;2022-10-10T15:58:24;59.80;;;37.42;;
55140;SDS011;41035;44.280;19.870;2022-10-10T16:00:50;53.47;;;39.53;;
55140;SDS011;41035;44.280;19.870;2022-10-10T16:03:16;53.63;;;33.30;;
55140;SDS011;41035;44.280;19.870;2022-10-10T16:05:42;44.55;;;31.58;;
55140;SDS011;41035;44.280;19.870;2022-10-10T16:08:09;46.97;;;32.40;;
55140;SDS011;41035;44.280;19.870;2022-10-10T16:10:38;56.67;;;38.60;;
55140;SDS011;41035;44.280;19.870;2022-10-10T16:13:05;58.33;;;41.65;;
55140;SDS011;41035;44.280;19.870;2022-10-10T16:15:31;136.10;;;92.15;;
55140;SDS011;41035;44.280;19.870;2022-10-10T16:17:57;74.07;;;47.25;;
55140;SDS011;41035;44.280;19.870;2022-10-10T16:20:23;54.33;;;38.38;;
55140;SDS011;41035;44.280;19.870;2022-10-10T16:23:02;58.42;;;43.42;;
55140;SDS011;41035;44.280;19.870;2022-10-10T16:25:34;68.35;;;49.55;;
55140;SDS011;41035;44.280;19.870;2022-10-10T16:28:00;67.60;;;46.70;;
55140;SDS011;41035;44.280;19.870;2022-10-10T16:30:26;68.20;;;48.75;;
55140;SDS011;41035;44.280;19.870;2022-10-10T16:32:52;67.78;;;50.42;;
55140;SDS011;41035;44.280;19.870;2022-10-10T16:35:18;93.40;;;64.80;;
55140;SDS011;41035;44.280;19.870;2022-10-10T16:37:45;75.57;;;49.03;;
55140;SDS011;41035;44.280;19.870;2022-10-10T16:40:11;117.07;;;66.25;;
55140;SDS011;41035;44.280;19.870;2022-10-10T16:42:37;99.45;;;60.15;;
55140;SDS011;41035;44.280;19.870;2022-10-10T16:45:03;105.70;;;65.93;;